Time;durP1;ratioP1;P1;durP2;ratioP2;P2;SDS_P1;SDS_P2;PMS_P1;PMS_P2;Temp;Humidity;BMP_temperature;BMP_pressure;BME280_temperature;BME280_humidity;BME280_pressure;Samples;Min_cycle;Max_cycle;Signal;HPM_P1;HPM_P2
2022/12/20 00:01:39;;;;;;;0.10;0.10;;;2.90;99.90;;;;;;5065922;28;20036;-76
2022/12/20 00:04:09;;;;;;;0.38;0.38;;;1.00;99.90;;;;;;5059722;28;20021;-76
2022/12/20 00:06:36;;;;;;;10.55;10.10;;;1.10;99.90;;;;;;5069431;28;20117;-76
2022/12/20 00:09:06;;;;;;;2.55;2.45;;;1.10;99.90;;;;;;5052466;28;20064;-76
2022/12/20 00:11:40;;;;;;;3.78;3.67;;;1.10;99.90;;;;;;5051024;28;20119;-79
2022/12/20 00:14:08;;;;;;;2.30;2.20;;;1.00;99.90;;;;;;5049190;28;20031;-76
2022/12/20 00:16:35;;;;;;;4.55;4.35;;;1.00;99.90;;;;;;5056345;28;20029;-77
2022/12/20 00:19:05;;;;;;;0.77;0.77;;;1.00;99.90;;;;;;5075033;28;20028;-76
2022/12/20 00:21:35;;;;;;;7.45;7.15;;;1.10;99.90;;;;;;5072320;28;20019;-76
2022/12/20 00:24:04;;;;;;;10.20;9.75;;;1.10;99.90;;;;;;5074144;28;20028;-76
2022/12/20 00:26:32;;;;;;;24.25;20.17;;;1.20;99.90;;;;;;5071287;28;20040;-76
2022/12/20 00:28:59;;;;;;;2.22;2.13;;;0.60;99.90;;;;;;5069447;28;20052;-75
2022/12/20 00:31:28;;;;;;;29.10;27.25;;;1.20;99.90;;;;;;5069575;28;20027;-75
2022/12/20 00:33:55;;;;;;;0.52;0.52;;;1.20;99.90;;;;;;5070779;28;20086;-76
2022/12/20 00:36:23;;;;;;;0.57;0.57;;;1.30;99.90;;;;;;5070087;28;20141;-75
2022/12/20 00:38:51;;;;;;;30.33;27.95;;;1.40;99.90;;;;;;5074805;28;20055;-75
2022/12/20 00:41:19;;;;;;;0.85;0.85;;;1.40;99.90;;;;;;5070859;28;20602;-76
2022/12/20 00:43:46;;;;;;;1.27;1.25;;;1.00;99.90;;;;;;5070181;28;20035;-76
2022/12/20 00:46:13;;;;;;;0.77;0.77;;;1.50;99.90;;;;;;5076069;28;20013;-76
2022/12/20 00:48:40;;;;;;;23.63;22.55;;;1.50;99.90;;;;;;5075475;28;20031;-75
2022/12/20 00:51:09;;;;;;;0.22;0.22;;;1.60;99.90;;;;;;5077418;28;20017;-77
2022/12/20 00:53:39;;;;;;;58.03;28.05;;;1.60;99.90;;;;;;5059724;28;20096;-75
2022/12/20 00:56:06;;;;;;;0.10;0.10;;;1.60;99.90;;;;;;5053431;28;20433;-76
2022/12/20 00:58:34;;;;;;;0.20;0.20;;;1.50;99.90;;;;;;5053095;28;20029;-76
2022/12/20 01:01:00;;;;;;;4.03;3.83;;;1.50;99.90;;;;;;5070566;28;20506;-76
2022/12/20 01:03:26;;;;;;;0.20;0.20;;;1.40;99.90;;;;;;5069404;28;20075;-76
2022/12/20 01:05:54;;;;;;;1.08;1.08;;;1.30;99.90;;;;;;5069995;28;20103;-75
2022/12/20 01:08:23;;;;;;;6.35;6.07;;;1.30;99.90;;;;;;5070885;28;20437;-75
2022/12/20 01:11:06;;;;;;;3.22;1.73;;;1.20;99.90;;;;;;5072494;28;20577;-76
2022/12/20 01:13:34;;;;;;;0.10;0.10;;;1.20;99.90;;;;;;5074313;28;20173;-76
2022/12/20 01:16:28;;;;;;;2.38;2.30;;;1.20;99.90;;;;;;5077613;28;20066;-77
2022/12/20 01:18:56;;;;;;;0.15;0.15;;;1.10;99.90;;;;;;5085994;28;20090;-76
2022/12/20 01:21:26;;;;;;;26.85;24.23;;;1.50;99.90;;;;;;5083828;28;20017;-76
2022/12/20 01:23:54;;;;;;;1.95;1.85;;;1.00;99.90;;;;;;5082061;28;20490;-77
2022/12/20 01:26:22;;;;;;;0.10;0.10;;;1.00;99.90;;;;;;5074341;28;20025;-75
2022/12/20 01:28:56;;;;;;;9.77;9.38;;;1.00;99.90;;;;;;5057578;28;20300;-75
2022/12/20 01:31:23;;;;;;;0.10;0.10;;;;;;;;;;5068333;28;20119;-75
2022/12/20 01:33:50;;;;;;;4.63;3.08;;;-0.40;99.90;;;;;;5070435;28;20073;-74
2022/12/20 01:36:20;;;;;;;12.73;11.88;;;1.00;99.90;;;;;;5068456;28;20150;-76
2022/12/20 01:38:48;;;;;;;29.15;25.15;;;0.40;99.90;;;;;;5060572;28;20024;-75
2022/12/20 01:41:21;;;;;;;3.03;2.92;;;3.10;99.90;;;;;;5063758;28;20032;-76
2022/12/20 01:43:58;;;;;;;0.52;0.52;;;0.90;99.90;;;;;;5046235;28;20037;-75
2022/12/20 01:46:27;;;;;;;0.10;0.10;;;0.90;99.90;;;;;;5069997;28;20028;-76
2022/12/20 01:49:10;;;;;;;0.10;0.10;;;0.90;99.90;;;;;;5070989;28;20233;-76
2022/12/20 01:51:43;;;;;;;0.13;0.13;;;1.30;99.90;;;;;;5070056;28;20039;-76
2022/12/20 01:54:18;;;;;;;8.87;8.53;;;0.90;99.90;;;;;;5061886;28;20214;-75
2022/12/20 01:56:49;;;;;;;0.57;0.57;;;0.80;99.90;;;;;;5073279;28;20209;-75
2022/12/20 01:59:36;;;;;;;3.50;3.40;;;1.10;99.90;;;;;;5079913;28;20039;-76
2022/12/20 02:02:06;;;;;;;4.00;3.85;;;0.20;99.90;;;;;;5076716;28;20024;-76
2022/12/20 02:04:32;;;;;;;0.15;0.15;;;0.90;99.90;;;;;;5062469;28;20021;-76
2022/12/20 02:07:17;;;;;;;0.30;0.30;;;0.90;99.90;;;;;;5085063;28;20013;-76
2022/12/20 02:09:44;;;;;;;0.10;0.10;;;0.90;99.90;;;;;;5079852;28;20042;-76
2022/12/20 02:12:11;;;;;;;0.57;0.57;;;1.00;99.90;;;;;;5078744;28;20032;-75
2022/12/20 02:14:57;;;;;;;1.70;1.60;;;1.00;99.90;;;;;;5061639;28;20530;-76
2022/12/20 02:18:06;;;;;;;0.20;0.20;;;1.10;99.90;;;;;;5079711;28;20092;-75
2022/12/20 02:21:00;;;;;;;1.58;1.48;;;3.10;99.90;;;;;;5076067;28;20005;-80
2022/12/20 02:23:57;;;;;;;4.53;4.38;;;1.40;99.90;;;;;;5073264;28;20055;-75
2022/12/20 02:26:41;;;;;;;18.02;16.77;;;1.20;99.90;;;;;;5000975;28;20038;-76
2022/12/20 02:29:32;;;;;;;9.23;8.38;;;1.20;99.90;;;;;;5007004;28;20104;-76
2022/12/20 02:32:07;;;;;;;0.15;0.15;;;1.20;99.90;;;;;;5005486;28;20030;-76
2022/12/20 02:34:37;;;;;;;10.52;10.13;;;1.40;99.90;;;;;;5008598;28;20049;-75
2022/12/20 02:37:03;;;;;;;0.10;0.10;;;1.40;99.90;;;;;;4991436;28;20037;-76
2022/12/20 02:39:30;;;;;;;0.10;0.10;;;1.40;99.90;;;;;;5009381;28;20113;-76
2022/12/20 02:42:21;;;;;;;7.43;6.80;;;1.40;99.90;;;;;;5010062;28;20044;-79
2022/12/20 02:48:10;;;;;;;0.10;0.10;;;1.30;99.90;;;;;;5005261;28;20133;-78
2022/12/20 02:50:51;;;;;;;9.30;8.80;;;1.30;99.90;;;;;;4933571;29;20050;-75
2022/12/20 02:53:18;;;;;;;3.13;3.03;;;1.50;99.90;;;;;;4945430;28;20023;-75
2022/12/20 02:55:50;;;;;;;29.60;27.95;;;1.30;99.90;;;;;;4951159;29;20042;-77
2022/12/20 02:58:38;;;;;;;5.93;5.72;;;1.30;99.90;;;;;;4981900;28;20039;-75
2022/12/20 03:01:11;;;;;;;0.10;0.10;;;1.00;99.90;;;;;;4981665;28;20033;-76
2022/12/20 03:03:37;;;;;;;15.30;14.55;;;1.60;99.90;;;;;;4986892;28;20034;-75
2022/12/20 03:06:03;;;;;;;0.10;0.10;;;1.20;99.90;;;;;;4967774;28;20574;-76
2022/12/20 03:08:29;;;;;;;0.20;0.20;;;1.60;99.90;;;;;;4988530;28;20038;-82
2022/12/20 03:10:57;;;;;;;18.05;17.08;;;1.20;99.90;;;;;;4968545;28;20030;-76
2022/12/20 03:13:29;;;;;;;22.90;21.52;;;1.20;99.90;;;;;;4984307;28;20116;-78
2022/12/20 03:15:55;;;;;;;6.15;5.85;;;2.70;99.90;;;;;;4984954;28;20284;-77
2022/12/20 03:18:21;;;;;;;3.60;3.40;;;1.30;99.90;;;;;;4970693;28;20050;-75
2022/12/20 03:20:47;;;;;;;1.38;1.35;;;1.30;99.90;;;;;;4986983;28;20503;-76
2022/12/20 03:23:20;;;;;;;1.15;1.10;;;1.20;99.90;;;;;;4986642;28;20093;-76
2022/12/20 03:25:48;;;;;;;0.10;0.10;;;1.30;99.90;;;;;;4989678;28;20037;-76
2022/12/20 03:28:13;;;;;;;0.60;0.60;;;1.30;99.90;;;;;;5062382;28;20048;-76
2022/12/20 03:31:01;;;;;;;0.10;0.10;;;1.30;99.90;;;;;;5051420;28;20036;-75
2022/12/20 03:33:29;;;;;;;0.30;0.30;;;1.40;99.90;;;;;;5066608;28;20040;-76
2022/12/20 03:35:55;;;;;;;2.85;2.75;;;1.40;99.90;;;;;;5065494;28;20028;-75
2022/12/20 03:38:20;;;;;;;11.43;11.02;;;1.30;99.90;;;;;;5067293;28;20029;-76
2022/12/20 03:40:46;;;;;;;1.20;1.20;;;1.30;99.90;;;;;;5068455;28;20024;-76
2022/12/20 03:43:15;;;;;;;0.10;0.10;;;1.30;99.90;;;;;;5067997;28;20029;-75
2022/12/20 03:45:41;;;;;;;0.38;0.38;;;1.30;99.90;;;;;;5069514;28;20019;-76
2022/12/20 03:48:06;;;;;;;9.25;8.77;;;1.20;99.90;;;;;;5070956;28;20368;-75
2022/12/20 03:50:33;;;;;;;37.67;34.85;;;1.20;99.90;;;;;;5072515;28;20032;-75
2022/12/20 03:53:00;;;;;;;0.13;0.13;;;1.20;99.90;;;;;;5073571;28;20021;-76
2022/12/20 03:55:26;;;;;;;0.10;0.10;;;1.10;99.90;;;;;;5072518;28;20021;-77
2022/12/20 03:57:52;;;;;;;0.47;0.47;;;1.10;99.90;;;;;;5074219;28;20085;-76
2022/12/20 04:00:19;;;;;;;7.13;6.80;;;1.10;99.90;;;;;;5068527;28;20040;-76
2022/12/20 04:02:51;;;;;;;0.20;0.20;;;1.00;99.90;;;;;;5071640;28;20066;-76
2022/12/20 04:05:17;;;;;;;0.10;0.10;;;1.00;99.90;;;;;;5050793;28;20017;-76
2022/12/20 04:07:44;;;;;;;0.10;0.10;;;0.90;99.90;;;;;;5073269;28;20027;-75
2022/12/20 04:10:10;;;;;;;8.70;8.40;;;0.80;99.90;;;;;;5075885;28;20042;-76
2022/12/20 04:12:36;;;;;;;0.10;0.10;;;0.80;99.90;;;;;;5076655;28;20024;-76
2022/12/20 04:15:03;;;;;;;16.40;14.80;;;0.80;99.90;;;;;;5053051;28;20123;-76
2022/12/20 04:17:32;;;;;;;0.10;0.10;;;0.80;99.90;;;;;;5080140;28;20028;-76
2022/12/20 04:19:57;;;;;;;0.15;0.15;;;0.90;99.90;;;;;;5082329;28;20034;-76
2022/12/20 04:22:23;;;;;;;4.82;4.50;;;;;;;;;;5084923;28;20013;-77
2022/12/20 04:25:06;;;;;;;0.10;0.10;;;0.80;99.90;;;;;;5069629;28;20017;-77
2022/12/20 04:27:31;;;;;;;4.43;4.28;;;0.80;99.90;;;;;;5066818;28;20041;-76
2022/12/20 04:29:57;;;;;;;48.97;11.55;;;0.80;99.90;;;;;;5066983;28;20037;-75
2022/12/20 04:32:23;;;;;;;0.20;0.20;;;;;;;;;;5065636;28;20121;-76
2022/12/20 04:34:49;;;;;;;0.10;0.10;;;0.80;99.90;;;;;;5068107;28;20103;-76
2022/12/20 04:37:17;;;;;;;0.17;0.17;;;0.80;99.90;;;;;;5069649;28;20067;-76
2022/12/20 04:39:44;;;;;;;4.88;4.68;;;0.80;99.90;;;;;;5051311;28;20043;-76
2022/12/20 04:42:10;;;;;;;0.10;0.10;;;;;;;;;;5066927;28;20047;-76
2022/12/20 04:44:35;;;;;;;2.58;2.47;;;0.80;99.90;;;;;;5069663;28;20021;-76
2022/12/20 04:47:03;;;;;;;0.10;0.10;;;1.30;99.90;;;;;;5072067;28;20027;-76
2022/12/20 04:49:31;;;;;;;0.15;0.15;;;0.80;99.90;;;;;;5076093;28;20013;-76
2022/12/20 04:53:46;;;;;;;0.10;0.10;;;0.90;99.90;;;;;;5074502;28;20102;-76
2022/12/20 04:54:42;;;;;;;0.10;0.10;;;1.00;99.90;;;;;;5073412;28;20541;-76
2022/12/20 04:57:08;;;;;;;0.22;0.22;;;;;;;;;;5076956;28;20021;-76
2022/12/20 04:59:34;;;;;;;0.25;0.25;;;1.00;99.90;;;;;;5077088;28;20032;-76
2022/12/20 05:02:00;;;;;;;0.20;0.20;;;1.10;99.90;;;;;;5073999;28;20106;-76
2022/12/20 05:04:26;;;;;;;26.10;24.75;;;1.00;99.90;;;;;;5049907;28;20328;-76
2022/12/20 05:06:53;;;;;;;0.30;0.30;;;1.00;99.90;;;;;;5078196;28;20465;-76
2022/12/20 05:09:21;;;;;;;0.17;0.17;;;1.00;99.90;;;;;;5074705;28;20426;-76
2022/12/20 05:11:48;;;;;;;0.20;0.20;;;1.00;99.90;;;;;;5068108;28;20036;-75
2022/12/20 05:14:15;;;;;;;0.03;0.03;;;0.90;99.90;;;;;;5071227;28;20078;-76
2022/12/20 05:16:41;;;;;;;0.10;0.10;;;0.90;99.90;;;;;;5071014;28;20032;-76
2022/12/20 05:19:07;;;;;;;8.20;7.97;;;0.70;99.90;;;;;;5074785;28;20029;-75
2022/12/20 05:27:03;;;;;;;;;;;0.60;99.90;;;;;;5006737;28;20049;-76
2022/12/20 05:29:29;;;;;;;0.10;0.10;;;0.60;99.90;;;;;;5006989;28;19917;-76
2022/12/20 05:31:56;;;;;;;0.20;0.20;;;;;;;;;;4991489;28;20103;-76
2022/12/20 05:34:21;;;;;;;37.72;35.97;;;0.50;99.90;;;;;;5002691;28;20053;-76
2022/12/20 05:36:47;;;;;;;0.37;0.37;;;0.50;99.90;;;;;;4988848;28;20037;-76
2022/12/20 05:39:13;;;;;;;0.10;0.10;;;0.50;99.90;;;;;;5006250;28;20562;-76
2022/12/20 05:41:43;;;;;;;0.10;0.10;;;0.50;99.90;;;;;;4989977;28;20033;-76
2022/12/20 05:44:09;;;;;;;0.10;0.10;;;0.60;99.90;;;;;;5007625;28;20275;-75
2022/12/20 05:46:39;;;;;;;2.63;2.53;;;0.60;99.90;;;;;;5010345;28;20026;-75
2022/12/20 05:49:05;;;;;;;0.43;0.43;;;0.60;99.90;;;;;;5013909;28;20157;-76
2022/12/20 05:51:33;;;;;;;25.25;23.30;;;0.60;99.90;;;;;;5011050;28;20262;-76
2022/12/20 05:53:59;;;;;;;1.87;1.77;;;0.70;99.90;;;;;;5010461;28;20025;-75
2022/12/20 05:56:25;;;;;;;0.00;0.00;;;0.80;99.90;;;;;;4993139;28;20440;-76
2022/12/20 05:58:51;;;;;;;3.85;3.63;;;0.80;99.90;;;;;;5008747;28;20100;-76
2022/12/20 06:01:17;;;;;;;4.95;4.75;;;0.80;99.90;;;;;;5037869;28;20071;-75
2022/12/20 06:03:44;;;;;;;0.10;0.10;;;0.80;99.90;;;;;;5070662;28;20032;-76
2022/12/20 06:06:11;;;;;;;0.32;0.32;;;0.80;99.90;;;;;;5073835;28;20032;-76
2022/12/20 06:08:36;;;;;;;1.77;1.73;;;0.80;99.90;;;;;;5077841;28;20820;-76
2022/12/20 06:11:03;;;;;;;0.10;0.10;;;0.80;99.90;;;;;;5045938;28;20087;-75
2022/12/20 06:13:32;;;;;;;0.77;0.77;;;0.90;99.90;;;;;;5072925;28;20028;-78
2022/12/20 06:16:04;;;;;;;0.20;0.20;;;0.90;99.90;;;;;;5073779;28;20051;-75
2022/12/20 06:18:31;;;;;;;9.88;9.50;;;-1.60;99.90;;;;;;5072484;28;20060;-79
2022/12/20 06:20:58;;;;;;;32.53;18.15;;;0.80;99.90;;;;;;5054772;28;20041;-76
2022/12/20 06:23:24;;;;;;;6.13;5.78;;;0.80;99.90;;;;;;5053153;28;20048;-76
2022/12/20 06:25:50;;;;;;;0.10;0.10;;;0.80;99.90;;;;;;5068274;28;20029;-75
2022/12/20 06:28:23;;;;;;;0.10;0.10;;;0.80;99.90;;;;;;5051289;28;20063;-75
2022/12/20 06:30:56;;;;;;;0.10;0.10;;;0.80;99.90;;;;;;5074579;28;20060;-75
2022/12/20 06:33:21;;;;;;;0.10;0.10;;;0.70;99.90;;;;;;5075165;28;20028;-75
2022/12/20 06:35:51;;;;;;;1.45;1.45;;;0.60;99.90;;;;;;5074695;28;20119;-75
2022/12/20 06:38:28;;;;;;;0.20;0.20;;;0.50;99.90;;;;;;5077034;28;20048;-75
2022/12/20 06:40:54;;;;;;;0.85;0.85;;;;;;;;;;5054210;28;20094;-76
2022/12/20 06:43:20;;;;;;;0.10;0.10;;;;;;;;;;5080034;28;20047;-75
2022/12/20 06:45:50;;;;;;;13.57;12.65;;;0.50;99.90;;;;;;5080908;28;20020;-76
2022/12/20 06:48:17;;;;;;;0.60;0.60;;;0.40;99.90;;;;;;5078122;28;20016;-76
2022/12/20 06:50:43;;;;;;;0.10;0.10;;;0.40;99.90;;;;;;5080104;28;20054;-76
2022/12/20 06:53:09;;;;;;;0.17;0.17;;;0.40;99.90;;;;;;5075092;28;20040;-75
2022/12/20 06:55:37;;;;;;;0.10;0.10;;;0.40;99.90;;;;;;5074167;28;20352;-76
2022/12/20 06:58:04;;;;;;;0.10;0.10;;;0.40;99.90;;;;;;5062388;28;20028;-75
2022/12/20 07:00:30;;;;;;;0.27;0.27;;;0.40;99.90;;;;;;5047615;28;20016;-75
2022/12/20 07:02:55;;;;;;;0.10;0.10;;;0.50;99.90;;;;;;5050091;28;20043;-75
2022/12/20 07:05:22;;;;;;;0.98;0.98;;;-2.10;99.90;;;;;;5076861;28;20016;-75
2022/12/20 07:07:57;;;;;;;0.10;0.10;;;0.60;99.90;;;;;;5077174;28;20032;-77
2022/12/20 07:10:27;;;;;;;14.00;13.10;;;0.70;99.90;;;;;;5065691;28;20082;-76
2022/12/20 07:13:17;;;;;;;0.10;0.10;;;0.80;99.90;;;;;;5034235;28;20062;-76
2022/12/20 07:15:43;;;;;;;0.43;0.43;;;0.80;99.90;;;;;;5068271;28;20024;-75
2022/12/20 07:18:09;;;;;;;0.10;0.10;;;-1.10;99.90;;;;;;5082125;28;20027;-75
2022/12/20 07:20:37;;;;;;;2.00;1.95;;;0.90;99.90;;;;;;5085208;28;20013;-76
2022/12/20 07:23:06;;;;;;;2.95;2.88;;;1.00;99.90;;;;;;5057049;28;20421;-76
2022/12/20 07:25:36;;;;;;;0.10;0.10;;;1.20;99.90;;;;;;5075363;28;20035;-75
2022/12/20 07:28:04;;;;;;;1.60;1.55;;;1.10;99.90;;;;;;5061258;28;20048;-76
2022/12/20 07:30:36;;;;;;;0.10;0.10;;;1.40;99.90;;;;;;5074781;28;20264;-76
2022/12/20 07:33:11;;;;;;;3.40;3.30;;;1.40;99.90;;;;;;5079422;28;20514;-77
2022/12/20 07:35:44;;;;;;;0.10;0.10;;;1.10;99.90;;;;;;5082962;28;20024;-75
2022/12/20 07:38:12;;;;;;;0.10;0.10;;;1.00;99.90;;;;;;5070631;28;20036;-76
2022/12/20 07:40:42;;;;;;;0.55;0.55;;;0.90;99.90;;;;;;5079363;28;20045;-76
2022/12/20 07:43:11;;;;;;;0.50;0.50;;;0.90;99.90;;;;;;5055492;28;20375;-76
2022/12/20 07:45:36;;;;;;;35.65;33.17;;;0.80;99.90;;;;;;5054291;28;20109;-75
2022/12/20 07:48:05;;;;;;;0.05;0.05;;;0.80;99.90;;;;;;5067057;28;20017;-75
2022/12/20 07:50:32;;;;;;;0.15;0.15;;;0.90;99.90;;;;;;5069630;28;20040;-76
2022/12/20 07:53:00;;;;;;;7.68;6.95;;;1.30;99.90;;;;;;5072301;28;20096;-76
2022/12/20 07:55:28;;;;;;;0.55;0.55;;;0.80;99.90;;;;;;5040846;28;20051;-76
2022/12/20 07:58:01;;;;;;;0.87;0.87;;;1.00;99.90;;;;;;5071453;28;20063;-75
2022/12/20 08:00:48;;;;;;;0.10;0.10;;;-1.40;99.90;;;;;;5063917;28;20020;-75
2022/12/20 08:03:23;;;;;;;0.20;0.20;;;1.00;99.90;;;;;;5022722;28;20072;-75
2022/12/20 08:05:54;;;;;;;0.10;0.10;;;1.00;99.90;;;;;;5028875;28;20065;-76
2022/12/20 08:08:25;;;;;;;2.17;2.08;;;1.00;99.90;;;;;;5029442;28;20060;-76
2022/12/20 08:10:54;;;;;;;0.13;0.13;;;1.00;99.90;;;;;;5025346;28;20543;-76
2022/12/20 08:13:23;;;;;;;0.10;0.10;;;0.90;99.90;;;;;;5019095;28;20037;-76
2022/12/20 08:15:50;;;;;;;1.30;1.27;;;0.80;99.90;;;;;;5039874;28;20155;-77
2022/12/20 08:18:15;;;;;;;0.00;0.00;;;1.00;99.90;;;;;;5021493;28;20030;-75
2022/12/20 08:20:42;;;;;;;3.20;3.08;;;1.10;99.90;;;;;;5014188;28;20120;-77
2022/12/20 08:23:08;;;;;;;12.73;11.80;;;1.30;99.90;;;;;;5015977;28;20117;-77
2022/12/20 08:25:45;;;;;;;0.20;0.20;;;1.20;99.90;;;;;;5011038;28;20061;-76
2022/12/20 08:28:13;;;;;;;0.10;0.10;;;1.30;99.90;;;;;;5020298;28;20065;-76
2022/12/20 08:30:38;;;;;;;0.10;0.10;;;1.30;99.90;;;;;;5019186;28;20188;-76
2022/12/20 08:33:05;;;;;;;0.30;0.30;;;1.40;99.90;;;;;;5016669;28;20030;-76
2022/12/20 08:35:31;;;;;;;0.10;0.10;;;1.30;99.90;;;;;;5011771;28;20030;-76
2022/12/20 08:37:57;;;;;;;0.40;0.40;;;1.40;99.90;;;;;;5013699;28;20037;-75
2022/12/20 08:40:24;;;;;;;6.53;6.28;;;1.40;99.90;;;;;;5016071;28;20037;-75
2022/12/20 08:42:53;;;;;;;0.00;0.00;;;1.20;99.90;;;;;;5020830;28;20053;-77
2022/12/20 08:45:22;;;;;;;0.10;0.10;;;-1.30;99.90;;;;;;5024743;28;20601;-76
2022/12/20 08:47:51;;;;;;;0.22;0.22;;;1.20;99.90;;;;;;5052010;28;20037;-75
2022/12/20 08:50:18;;;;;;;0.20;0.20;;;1.30;99.90;;;;;;5056283;28;20045;-75
2022/12/20 08:52:44;;;;;;;0.40;0.40;;;1.30;99.90;;;;;;5063227;28;20016;-76
2022/12/20 08:55:10;;;;;;;10.48;9.98;;;;;;;;;;5332448;22;20043;-76
2022/12/20 08:57:36;;;;;;;0.20;0.20;;;1.30;99.90;;;;;;5070187;28;20029;-76
2022/12/20 09:00:41;;;;;;;0.22;0.22;;;-1.40;99.90;;;;;;5083862;28;20013;-76
2022/12/20 09:03:08;;;;;;;3.70;3.40;;;;;;;;;;5079503;28;20731;-76
2022/12/20 09:05:34;;;;;;;0.15;0.15;;;1.50;99.90;;;;;;5059000;28;20081;-74
2022/12/20 09:08:00;;;;;;;0.55;0.55;;;1.50;99.90;;;;;;5092310;28;20103;-75
2022/12/20 09:10:25;;;;;;;0.10;0.10;;;1.50;99.90;;;;;;5095576;28;20044;-74
2022/12/20 09:12:55;;;;;;;0.10;0.10;;;1.40;99.90;;;;;;5101222;28;20024;-76
2022/12/20 09:15:20;;;;;;;7.55;7.18;;;1.30;99.90;;;;;;5082495;28;20028;-75
2022/12/20 09:17:54;;;;;;;0.10;0.10;;;1.40;99.90;;;;;;5105152;28;20091;-76
2022/12/20 09:20:24;;;;;;;0.10;0.10;;;1.40;99.90;;;;;;5107151;28;20059;-76
2022/12/20 09:22:50;;;;;;;0.13;0.13;;;1.50;99.90;;;;;;5094080;28;20012;-76
2022/12/20 09:25:16;;;;;;;0.10;0.10;;;1.40;99.90;;;;;;5104171;28;20019;-76
2022/12/20 09:27:44;;;;;;;1.83;1.77;;;1.50;99.90;;;;;;5091635;28;20612;-76
2022/12/20 09:30:11;;;;;;;17.35;16.45;;;1.60;99.90;;;;;;5078468;28;20036;-77
2022/12/20 09:32:41;;;;;;;1.23;1.20;;;1.60;99.90;;;;;;5081487;28;20733;-75
2022/12/20 09:35:18;;;;;;;0.10;0.10;;;4.30;99.90;;;;;;5101327;28;20020;-76
2022/12/20 09:37:45;;;;;;;0.75;0.75;;;1.60;99.90;;;;;;5104808;28;20028;-76
2022/12/20 09:40:19;;;;;;;2.55;2.45;;;1.60;99.90;;;;;;5090357;28;20024;-75
2022/12/20 09:43:13;;;;;;;5.60;5.40;;;1.70;99.90;;;;;;5096750;28;20040;-76
2022/12/20 09:45:38;;;;;;;0.10;0.10;;;1.70;99.90;;;;;;5093102;28;20047;-76
2022/12/20 09:48:12;;;;;;;0.10;0.10;;;4.50;99.90;;;;;;5101925;28;20513;-75
2022/12/20 09:51:09;;;;;;;0.10;0.10;;;1.70;99.90;;;;;;5093247;28;20040;-75
2022/12/20 09:53:41;;;;;;;0.10;0.10;;;1.70;99.90;;;;;;5089369;28;20085;-75
2022/12/20 09:56:29;;;;;;;0.10;0.10;;;1.80;99.90;;;;;;5088614;28;20062;-75
2022/12/20 09:59:02;;;;;;;0.10;0.10;;;1.90;99.90;;;;;;5102465;28;20024;-76
2022/12/20 10:01:31;;;;;;;0.10;0.10;;;2.00;99.90;;;;;;5080293;28;20012;-77
2022/12/20 10:04:11;;;;;;;5.80;5.57;;;2.10;99.90;;;;;;5097272;28;20103;-76
2022/12/20 10:06:59;;;;;;;0.43;0.43;;;2.30;99.90;;;;;;5095041;28;20031;-75
2022/12/20 10:09:47;;;;;;;0.10;0.10;;;2.40;99.90;;;;;;5094832;28;20451;-75
2022/12/20 10:12:25;;;;;;;22.13;21.23;;;2.30;99.90;;;;;;5084733;28;20024;-78
2022/12/20 10:14:59;;;;;;;0.00;0.00;;;2.40;99.90;;;;;;5098228;28;20026;-75
2022/12/20 10:17:58;;;;;;;0.25;0.25;;;2.50;99.90;;;;;;5098253;28;20027;-76
2022/12/20 10:21:04;;;;;;;0.10;0.10;;;2.80;99.90;;;;;;5100427;28;20062;-76
2022/12/20 10:23:47;;;;;;;0.20;0.20;;;2.70;99.90;;;;;;5080593;28;20112;-75
2022/12/20 10:26:20;;;;;;;0.10;0.10;;;2.80;99.90;;;;;;5101976;28;20016;-75
2022/12/20 10:28:53;;;;;;;0.00;0.00;;;2.90;99.90;;;;;;5107992;28;20028;-75
2022/12/20 10:31:19;;;;;;;25.10;23.03;;;2.90;99.90;;;;;;5090755;28;20044;-76
2022/12/20 10:33:48;;;;;;;0.00;0.00;;;3.00;99.90;;;;;;5071527;28;20283;-76
2022/12/20 10:36:48;;;;;;;0.17;0.17;;;3.00;99.90;;;;;;5096063;28;20445;-84
2022/12/20 10:39:15;;;;;;;6.40;6.18;;;3.10;99.90;;;;;;4993281;28;20599;-79
2022/12/20 10:42:09;;;;;;;0.10;0.10;;;3.00;99.90;;;;;;5014473;28;20045;-77
2022/12/20 10:44:37;;;;;;;0.10;0.10;;;2.80;99.90;;;;;;4998172;28;20030;-76
2022/12/20 10:47:43;;;;;;;11.25;10.50;;;2.00;99.90;;;;;;5012988;28;20046;-76
2022/12/20 10:50:19;;;;;;;0.00;0.00;;;2.80;99.90;;;;;;4976368;28;20130;-76
2022/12/20 10:53:23;;;;;;;1.40;1.38;;;2.80;99.90;;;;;;4996181;28;20025;-76
2022/12/20 10:56:37;;;;;;;0.03;0.03;;;3.00;99.90;;;;;;5000915;28;20026;-78
2022/12/20 10:59:34;;;;;;;0.10;0.10;;;2.70;99.90;;;;;;4957184;29;20043;-76
2022/12/20 11:02:36;;;;;;;0.10;0.10;;;3.00;99.90;;;;;;4950255;28;20038;-76
2022/12/20 11:05:31;;;;;;;0.10;0.10;;;2.60;99.90;;;;;;4955074;29;20054;-76
2022/12/20 11:08:06;;;;;;;5.40;5.05;;;2.70;99.90;;;;;;4885585;29;20285;-75
2022/12/20 11:10:32;;;;;;;1.02;1.02;;;2.70;99.90;;;;;;4884480;29;20076;-76
2022/12/20 11:13:02;;;;;;;10.43;10.00;;;2.70;99.90;;;;;;4877637;29;20113;-75
2022/12/20 11:15:30;;;;;;;30.40;18.63;;;2.70;99.90;;;;;;4884611;29;20029;-76
2022/12/20 11:18:08;;;;;;;2.17;2.08;;;2.80;99.90;;;;;;4892998;29;20087;-76
2022/12/20 11:21:26;;;;;;;0.47;0.47;;;2.80;99.90;;;;;;4895102;29;20539;-84
2022/12/20 11:24:11;;;;;;;1.77;1.75;;;3.10;99.90;;;;;;4858880;29;20262;-75
2022/12/20 11:27:29;;;;;;;0.10;0.10;;;3.00;99.90;;;;;;4867083;29;20062;-76
2022/12/20 11:30:08;;;;;;;0.17;0.17;;;3.20;99.90;;;;;;4882818;29;20059;-76
2022/12/20 11:33:16;;;;;;;6.15;5.93;;;4.40;99.90;;;;;;4862908;29;20069;-77
2022/12/20 11:36:12;;;;;;;1.52;1.48;;;3.00;99.90;;;;;;4855671;29;20113;-77
2022/12/20 11:39:09;;;;;;;2.75;2.65;;;3.10;99.90;;;;;;4882057;29;20040;-76
2022/12/20 11:42:01;;;;;;;16.63;16.00;;;3.20;99.90;;;;;;4838776;29;20045;-77
2022/12/20 11:44:45;;;;;;;0.10;0.10;;;3.60;99.90;;;;;;4850196;29;20061;-77
2022/12/20 11:47:25;;;;;;;2.05;1.98;;;3.20;99.90;;;;;;4904268;29;20033;-76
2022/12/20 11:49:57;;;;;;;9.50;9.10;;;3.30;99.90;;;;;;4898534;29;20043;-75
2022/12/20 11:52:45;;;;;;;4.50;4.05;;;3.40;99.90;;;;;;4894786;29;20231;-76
2022/12/20 11:55:28;;;;;;;0.10;0.10;;;3.50;99.90;;;;;;4892553;29;20020;-78
2022/12/20 11:58:26;;;;;;;0.88;0.88;;;3.70;99.90;;;;;;4895920;29;20091;-75
2022/12/20 12:01:03;;;;;;;0.40;0.40;;;3.60;99.90;;;;;;4976087;28;20030;-75
2022/12/20 12:03:42;;;;;;;0.73;0.73;;;3.70;99.90;;;;;;4983175;28;20010;-75
2022/12/20 12:06:29;;;;;;;15.70;14.05;;;3.80;99.90;;;;;;4983579;28;20767;-75
2022/12/20 12:09:25;;;;;;;0.20;0.20;;;3.60;99.90;;;;;;4968130;28;20086;-75
2022/12/20 12:12:07;;;;;;;8.88;8.50;;;3.80;99.90;;;;;;4990349;28;20046;-74
2022/12/20 12:15:30;;;;;;;5.72;5.05;;;3.80;99.90;;;;;;5017268;28;20125;-75
2022/12/20 12:18:30;;;;;;;39.90;37.15;;;3.50;99.90;;;;;;5025992;28;20059;-75
2022/12/20 12:21:14;;;;;;;10.30;9.85;;;3.60;99.90;;;;;;5050110;28;20037;-75
2022/12/20 12:24:13;;;;;;;0.75;0.75;;;3.70;99.90;;;;;;5020451;28;20026;-76
2022/12/20 12:26:40;;;;;;;1.77;1.67;;;4.00;99.90;;;;;;5047262;28;20010;-76
2022/12/20 12:29:29;;;;;;;2.85;2.75;;;4.00;99.90;;;;;;5009451;28;20080;-76
2022/12/20 12:32:31;;;;;;;1.17;1.17;;;3.90;99.90;;;;;;5030214;28;20049;-76
2022/12/20 12:35:19;;;;;;;3.20;3.10;;;4.00;99.90;;;;;;5045672;28;20017;-74
2022/12/20 12:38:23;;;;;;;0.10;0.10;;;3.90;99.90;;;;;;5041739;28;20021;-75
2022/12/20 12:41:28;;;;;;;0.45;0.45;;;4.10;99.90;;;;;;5001899;28;20026;-75
2022/12/20 12:44:30;;;;;;;0.10;0.10;;;4.10;99.90;;;;;;4987829;28;20156;-75
2022/12/20 12:47:11;;;;;;;10.85;10.35;;;4.10;99.90;;;;;;4931002;28;20095;-76
2022/12/20 12:49:41;;;;;;;7.72;7.43;;;3.10;99.90;;;;;;4930756;29;20044;-76
2022/12/20 12:52:34;;;;;;;5.18;4.90;;;4.00;99.90;;;;;;4960662;28;20135;-76
2022/12/20 12:55:00;;;;;;;0.10;0.10;;;3.40;99.90;;;;;;4971704;28;20019;-76
2022/12/20 12:57:27;;;;;;;0.80;0.80;;;4.00;99.90;;;;;;4967883;28;20031;-76
2022/12/20 12:59:53;;;;;;;0.03;0.03;;;4.00;99.90;;;;;;4972652;28;20019;-76
2022/12/20 13:02:26;;;;;;;2.35;2.28;;;4.10;99.90;;;;;;4972836;28;20031;-76
2022/12/20 13:05:33;;;;;;;0.00;0.00;;;4.10;99.90;;;;;;4981360;28;20110;-75
2022/12/20 13:08:01;;;;;;;1.48;1.38;;;4.10;99.90;;;;;;4936320;29;20024;-76
2022/12/20 13:11:04;;;;;;;4.65;4.25;;;4.00;99.90;;;;;;4908067;29;20131;-76
2022/12/20 13:13:41;;;;;;;0.10;0.10;;;4.10;99.90;;;;;;4846286;29;20684;-76
2022/12/20 13:16:10;;;;;;;0.10;0.10;;;4.10;99.90;;;;;;4841523;29;20050;-75
2022/12/20 13:19:00;;;;;;;0.20;0.20;;;4.20;99.90;;;;;;4856571;29;20036;-76
2022/12/20 13:21:35;;;;;;;0.30;0.30;;;4.10;99.90;;;;;;4859517;29;20260;-75
2022/12/20 13:24:49;;;;;;;0.10;0.10;;;4.00;99.90;;;;;;4887257;29;20076;-77
2022/12/20 13:27:59;;;;;;;0.10;0.10;;;4.00;99.90;;;;;;4847892;29;20707;-76
2022/12/20 13:30:47;;;;;;;0.10;0.10;;;3.80;99.90;;;;;;4790625;30;20051;-76
2022/12/20 13:33:41;;;;;;;0.20;0.20;;;3.70;99.90;;;;;;4794624;29;20062;-85
2022/12/20 13:36:30;;;;;;;0.00;0.00;;;3.70;99.90;;;;;;4790133;30;20012;-76
2022/12/20 13:39:21;;;;;;;0.20;0.20;;;3.60;99.90;;;;;;4803864;29;20050;-76
2022/12/20 13:42:23;;;;;;;0.10;0.10;;;3.50;99.90;;;;;;4777889;30;20143;-75
2022/12/20 13:44:51;;;;;;;3.42;3.30;;;3.50;99.90;;;;;;4815598;29;20046;-76